Time;durP1;ratioP1;P1;durP2;ratioP2;P2;SDS_P1;SDS_P2;PMS_P1;PMS_P2;Temp;Humidity;BMP_temperature;BMP_pressure;BME280_temperature;BME280_humidity;BME280_pressure;Samples;Min_cycle;Max_cycle;Signal;HPM_P1;HPM_P2
2020/12/31 00:01:27;;;;;;;4.87;4.37;;;3.10;99.90;;;;;;5062628;28;20438;-71
2020/12/31 00:03:54;;;;;;;6.13;4.73;;;3.00;99.90;;;;;;5068766;28;20630;-71
2020/12/31 00:06:21;;;;;;;6.23;4.30;;;2.90;99.90;;;;;;5068477;28;20489;-71
2020/12/31 00:08:48;;;;;;;4.87;4.23;;;2.90;99.90;;;;;;5068827;28;20926;-73
2020/12/31 00:11:15;;;;;;;4.97;4.40;;;2.90;99.90;;;;;;5068792;28;20466;-71
2020/12/31 00:13:42;;;;;;;4.93;4.43;;;2.90;99.90;;;;;;5062392;28;20488;-71
2020/12/31 00:16:09;;;;;;;4.80;4.30;;;2.90;99.90;;;;;;5062137;28;20454;-73
2020/12/31 00:18:36;;;;;;;5.00;4.20;;;3.10;99.90;;;;;;5063141;28;20910;-72
2020/12/31 00:21:03;;;;;;;6.30;4.17;;;3.00;99.90;;;;;;5069441;28;20435;-73
2020/12/31 00:23:29;;;;;;;5.80;5.00;;;3.00;99.90;;;;;;5055666;28;20450;-71
2020/12/31 00:25:56;;;;;;;7.60;4.23;;;3.00;99.90;;;;;;5055731;28;20456;-71
2020/12/31 00:28:22;;;;;;;5.20;4.50;;;3.00;99.90;;;;;;5056033;28;20459;-73
2020/12/31 00:30:50;;;;;;;5.97;4.13;;;3.20;99.90;;;;;;5068082;28;20473;-72
2020/12/31 00:33:18;;;;;;;5.93;4.47;;;3.10;99.90;;;;;;5068630;28;20494;-71
2020/12/31 00:35:45;;;;;;;6.50;4.93;;;3.00;99.90;;;;;;5068606;28;20446;-71
2020/12/31 00:38:12;;;;;;;5.70;4.80;;;3.00;99.90;;;;;;5067511;28;20483;-73
2020/12/31 00:40:38;;;;;;;5.60;4.60;;;3.10;99.90;;;;;;5057880;28;20500;-72
2020/12/31 00:43:05;;;;;;;5.43;4.77;;;3.10;99.90;;;;;;5048262;28;20825;-73
2020/12/31 00:45:31;;;;;;;5.20;4.70;;;3.20;99.90;;;;;;5049303;28;20440;-72
2020/12/31 00:47:59;;;;;;;5.67;4.97;;;3.20;99.90;;;;;;5067335;28;20454;-72
2020/12/31 00:50:25;;;;;;;5.87;5.27;;;3.20;99.90;;;;;;5049982;28;20436;-72
2020/12/31 00:52:52;;;;;;;5.83;5.20;;;3.20;99.90;;;;;;5070736;28;20845;-73
2020/12/31 00:55:18;;;;;;;6.27;5.23;;;3.20;99.90;;;;;;5073757;28;20451;-71
2020/12/31 00:57:45;;;;;;;7.20;5.10;;;3.20;99.90;;;;;;5071820;28;20474;-72
2020/12/31 01:00:13;;;;;;;5.87;5.27;;;3.30;99.90;;;;;;5071886;28;20439;-73
2020/12/31 01:02:40;;;;;;;5.60;4.80;;;3.30;99.90;;;;;;5065259;28;20450;-72
2020/12/31 01:05:08;;;;;;;6.30;5.20;;;3.30;99.90;;;;;;5071940;28;20432;-72
2020/12/31 01:07:35;;;;;;;5.57;4.83;;;3.30;99.90;;;;;;5071379;28;20467;-72
2020/12/31 01:10:01;;;;;;;5.90;4.90;;;3.30;99.90;;;;;;5071684;28;20444;-72
2020/12/31 01:12:29;;;;;;;5.53;4.83;;;3.30;99.90;;;;;;5071660;28;20840;-72
2020/12/31 01:14:56;;;;;;;5.13;4.10;;;3.30;99.90;;;;;;5065384;28;20440;-72
2020/12/31 01:17:24;;;;;;;5.10;4.40;;;3.30;99.90;;;;;;5071522;28;20508;-72
2020/12/31 01:19:51;;;;;;;5.90;4.40;;;3.30;99.90;;;;;;5061957;28;20444;-71
2020/12/31 01:22:18;;;;;;;5.73;4.67;;;3.30;99.90;;;;;;5051769;28;20459;-71
2020/12/31 01:24:45;;;;;;;5.63;4.23;;;3.30;99.90;;;;;;5060294;28;20933;-72
2020/12/31 01:27:12;;;;;;;5.53;4.07;;;3.20;99.90;;;;;;5071361;28;20466;-72
2020/12/31 01:29:39;;;;;;;6.63;4.63;;;3.20;99.90;;;;;;5071064;28;20439;-71
2020/12/31 01:32:05;;;;;;;9.63;5.83;;;3.20;99.90;;;;;;5071070;28;20486;-72
2020/12/31 01:34:32;;;;;;;7.67;5.00;;;3.10;99.90;;;;;;5074702;28;21023;-72
2020/12/31 01:36:58;;;;;;;5.90;5.13;;;3.20;99.90;;;;;;5071095;28;20447;-72
2020/12/31 01:39:26;;;;;;;5.80;4.57;;;3.10;99.90;;;;;;5071492;28;20427;-72
2020/12/31 01:41:52;;;;;;;5.83;4.37;;;3.20;99.90;;;;;;5071484;28;20701;-72
2020/12/31 01:44:19;;;;;;;5.97;4.10;;;3.20;99.90;;;;;;5071275;28;20906;-71
2020/12/31 01:46:47;;;;;;;5.50;4.30;;;3.10;99.90;;;;;;5071420;28;20822;-72
2020/12/31 01:49:18;;;;;;;4.80;3.90;;;3.10;99.90;;;;;;5071417;28;20431;-72
2020/12/31 01:51:47;;;;;;;4.00;3.60;;;3.10;99.90;;;;;;5071145;28;20431;-73
2020/12/31 01:54:16;;;;;;;4.63;4.00;;;3.00;99.90;;;;;;5071268;28;20428;-72
2020/12/31 01:56:44;;;;;;;4.97;4.47;;;2.90;99.90;;;;;;5071044;28;20488;-72
2020/12/31 01:59:13;;;;;;;5.77;4.73;;;2.80;99.90;;;;;;5070773;28;20455;-72
2020/12/31 02:01:40;;;;;;;5.63;4.27;;;2.60;99.90;;;;;;5070747;28;20432;-72
2020/12/31 02:04:06;;;;;;;4.90;3.97;;;2.50;99.90;;;;;;5070977;28;20450;-71
2020/12/31 02:06:35;;;;;;;5.20;4.33;;;2.30;99.90;;;;;;5070470;28;20470;-72
2020/12/31 02:09:01;;;;;;;6.63;4.40;;;2.20;99.90;;;;;;5070460;28;20427;-72
2020/12/31 02:11:28;;;;;;;7.07;4.37;;;2.20;99.90;;;;;;5070589;28;20508;-72
2020/12/31 02:13:55;;;;;;;4.80;4.30;;;2.00;99.90;;;;;;5070466;28;20476;-71
2020/12/31 02:16:25;;;;;;;5.53;4.93;;;2.00;99.90;;;;;;5070681;28;20478;-72
2020/12/31 02:18:54;;;;;;;5.37;4.17;;;2.00;99.90;;;;;;5070764;28;20451;-72
2020/12/31 02:21:25;;;;;;;6.10;4.70;;;1.90;99.90;;;;;;5070969;28;20442;-71
2020/12/31 02:23:52;;;;;;;6.03;5.23;;;1.80;99.90;;;;;;5070830;28;20812;-71
2020/12/31 02:26:20;;;;;;;6.23;5.40;;;1.80;99.90;;;;;;5070041;28;20796;-72
2020/12/31 02:28:47;;;;;;;6.30;5.63;;;1.80;99.90;;;;;;5070406;28;20498;-72
2020/12/31 02:31:14;;;;;;;6.00;4.73;;;1.80;99.90;;;;;;5070187;28;20516;-72
2020/12/31 02:33:46;;;;;;;5.63;4.83;;;1.80;99.90;;;;;;5070504;28;20471;-72
2020/12/31 02:36:13;;;;;;;7.10;5.87;;;1.70;99.90;;;;;;5070004;28;20431;-72
2020/12/31 02:38:40;;;;;;;7.70;6.40;;;1.80;99.90;;;;;;5070064;28;20431;-73
2020/12/31 02:41:07;;;;;;;5.60;4.93;;;1.80;99.90;;;;;;5069901;28;20432;-73
2020/12/31 02:43:35;;;;;;;6.93;5.27;;;1.70;99.90;;;;;;5070112;28;20439;-71
2020/12/31 02:46:01;;;;;;;5.53;4.90;;;1.70;99.90;;;;;;5070022;28;20467;-71
2020/12/31 02:48:28;;;;;;;6.30;5.40;;;1.80;99.90;;;;;;5070070;28;20740;-71
2020/12/31 02:50:54;;;;;;;6.17;4.60;;;1.80;99.90;;;;;;5070160;28;20443;-71
2020/12/31 02:53:21;;;;;;;6.80;5.30;;;1.80;99.90;;;;;;5069587;28;20467;-72
2020/12/31 02:55:47;;;;;;;5.33;4.60;;;1.70;99.90;;;;;;5069832;28;20451;-71
2020/12/31 02:58:14;;;;;;;7.27;5.90;;;1.60;99.90;;;;;;5069651;28;20509;-71
2020/12/31 03:00:41;;;;;;;8.57;5.50;;;1.80;99.90;;;;;;5069533;28;20427;-72
2020/12/31 03:03:08;;;;;;;8.17;5.30;;;1.80;99.90;;;;;;5069553;28;20439;-71
2020/12/31 03:05:34;;;;;;;6.67;5.10;;;1.80;99.90;;;;;;5069604;28;20432;-71
2020/12/31 03:08:01;;;;;;;6.77;5.20;;;1.80;99.90;;;;;;5068989;28;20455;-71
2020/12/31 03:10:28;;;;;;;6.30;5.00;;;1.90;99.90;;;;;;5068726;28;20447;-71
2020/12/31 03:12:54;;;;;;;6.40;5.40;;;2.00;99.90;;;;;;5068709;28;20482;-71
2020/12/31 03:15:22;;;;;;;6.03;4.87;;;1.90;99.90;;;;;;5069248;28;20484;-71
2020/12/31 03:17:50;;;;;;;6.80;5.00;;;1.90;99.90;;;;;;5068532;28;20509;-71
2020/12/31 03:20:16;;;;;;;6.53;5.30;;;1.90;99.90;;;;;;5069567;28;20492;-71
2020/12/31 03:22:43;;;;;;;6.60;5.10;;;1.90;99.90;;;;;;5068973;28;20439;-72
2020/12/31 03:25:10;;;;;;;6.03;5.07;;;1.90;99.90;;;;;;5069546;28;20504;-72
2020/12/31 03:27:36;;;;;;;7.17;5.67;;;1.80;99.90;;;;;;5068995;28;20454;-71
2020/12/31 03:30:04;;;;;;;6.43;5.03;;;1.60;99.90;;;;;;5069461;28;20465;-71
2020/12/31 03:32:32;;;;;;;7.00;5.27;;;1.50;99.90;;;;;;5069034;28;20470;-72
2020/12/31 03:34:58;;;;;;;9.97;6.23;;;1.30;99.90;;;;;;5069235;28;20926;-73
2020/12/31 03:37:25;;;;;;;8.07;6.47;;;1.20;99.90;;;;;;5068688;28;20459;-71
2020/12/31 03:39:52;;;;;;;8.03;6.63;;;1.10;99.90;;;;;;5068860;28;20522;-71
2020/12/31 03:42:19;;;;;;;9.47;7.80;;;1.00;99.90;;;;;;5068894;28;20439;-72
2020/12/31 03:44:45;;;;;;;10.00;6.70;;;0.80;99.90;;;;;;5068395;28;20814;-72
2020/12/31 03:47:12;;;;;;;8.23;6.20;;;0.80;99.90;;;;;;5068539;28;20544;-72
2020/12/31 03:49:40;;;;;;;8.10;6.30;;;0.70;99.90;;;;;;5068250;28;20447;-72
2020/12/31 03:52:06;;;;;;;8.70;6.10;;;0.70;99.90;;;;;;5068914;28;20463;-73
2020/12/31 03:54:33;;;;;;;6.73;5.40;;;0.70;99.90;;;;;;5068737;28;20431;-71
2020/12/31 03:57:00;;;;;;;6.50;5.80;;;0.80;99.90;;;;;;5068682;28;20467;-71
2020/12/31 03:59:26;;;;;;;7.70;6.10;;;0.80;99.90;;;;;;5068586;28;20459;-71
2020/12/31 04:01:53;;;;;;;6.67;5.50;;;0.70;99.90;;;;;;5068993;28;20427;-71
2020/12/31 04:04:19;;;;;;;7.30;6.10;;;0.70;99.90;;;;;;5068622;28;20469;-72
2020/12/31 04:06:46;;;;;;;8.00;6.00;;;0.80;99.90;;;;;;5068456;28;20451;-71
2020/12/31 04:09:13;;;;;;;9.53;6.77;;;0.70;99.90;;;;;;5068611;28;20435;-72
2020/12/31 04:11:39;;;;;;;8.87;6.17;;;0.70;99.90;;;;;;5068507;28;20423;-71
2020/12/31 04:14:06;;;;;;;6.40;5.60;;;0.70;99.90;;;;;;5068757;28;20491;-71
2020/12/31 04:16:32;;;;;;;8.27;5.87;;;0.70;99.90;;;;;;5068496;28;20962;-71
2020/12/31 04:18:59;;;;;;;8.53;6.07;;;0.60;99.90;;;;;;5069657;28;20431;-71
2020/12/31 04:21:25;;;;;;;7.03;5.40;;;0.50;99.90;;;;;;5068700;28;20432;-73
2020/12/31 04:23:53;;;;;;;7.77;5.83;;;0.40;99.90;;;;;;5068487;28;20854;-72
2020/12/31 04:26:19;;;;;;;7.57;5.33;;;0.40;99.90;;;;;;5068322;28;20505;-71
2020/12/31 04:28:46;;;;;;;7.77;5.53;;;0.20;99.90;;;;;;5068589;28;20435;-71
2020/12/31 04:31:12;;;;;;;9.20;6.40;;;0.10;99.90;;;;;;5072778;28;21228;-71
2020/12/31 04:33:39;;;;;;;8.77;5.73;;;0.00;99.90;;;;;;5072141;28;20530;-72
2020/12/31 04:36:05;;;;;;;7.27;5.77;;;0.00;99.90;;;;;;5072390;28;20442;-71
2020/12/31 04:38:32;;;;;;;9.60;6.80;;;-0.10;99.90;;;;;;5072200;28;20435;-73
2020/12/31 04:41:03;;;;;;;10.80;7.00;;;-0.10;99.90;;;;;;5072388;28;20435;-71
2020/12/31 04:43:29;;;;;;;6.93;5.70;;;-0.20;99.90;;;;;;5072705;28;20446;-70
2020/12/31 04:45:56;;;;;;;7.80;5.60;;;-0.10;99.90;;;;;;5072030;28;20427;-73
2020/12/31 04:48:27;;;;;;;7.10;5.70;;;-0.10;99.90;;;;;;5071871;28;20466;-71
2020/12/31 04:50:57;;;;;;;7.20;5.60;;;-0.20;99.90;;;;;;5071754;28;20435;-71
2020/12/31 04:53:24;;;;;;;8.23;6.60;;;-0.20;99.90;;;;;;5072340;28;20554;-71
2020/12/31 04:55:51;;;;;;;7.60;5.57;;;-0.20;99.90;;;;;;5071709;28;20435;-71
2020/12/31 04:58:19;;;;;;;8.47;5.63;;;-0.10;99.90;;;;;;5071883;28;20467;-71
2020/12/31 05:00:47;;;;;;;7.67;5.90;;;-0.10;99.90;;;;;;5072412;28;20807;-71
2020/12/31 05:03:14;;;;;;;8.10;5.47;;;-0.20;99.90;;;;;;5072121;28;20837;-71
2020/12/31 05:05:40;;;;;;;9.37;5.97;;;-0.20;99.90;;;;;;5071647;28;20430;-73
2020/12/31 05:08:08;;;;;;;7.67;5.60;;;-0.20;99.90;;;;;;5072089;28;20550;-74
2020/12/31 05:10:34;;;;;;;10.63;6.67;;;-0.20;99.90;;;;;;5072304;28;20514;-71
2020/12/31 05:13:03;;;;;;;8.00;5.13;;;-0.20;99.90;;;;;;5071973;28;20520;-73
2020/12/31 05:15:35;;;;;;;7.53;5.70;;;-0.20;99.90;;;;;;5072127;28;20431;-70
2020/12/31 05:18:20;;;;;;;7.60;6.13;;;-0.20;99.90;;;;;;5071553;28;20463;-71
2020/12/31 05:20:48;;;;;;;10.77;6.17;;;-0.10;99.90;;;;;;5071703;28;20423;-71
2020/12/31 05:23:15;;;;;;;6.90;5.60;;;0.00;99.90;;;;;;5071342;28;20439;-72
2020/12/31 05:25:42;;;;;;;6.80;5.07;;;0.10;99.90;;;;;;5071274;28;20432;-72
2020/12/31 05:28:24;;;;;;;5.53;4.73;;;0.20;99.90;;;;;;5071460;28;20447;-72
2020/12/31 05:30:53;;;;;;;7.07;5.63;;;0.20;99.90;;;;;;5069229;28;20447;-72
2020/12/31 05:33:28;;;;;;;5.67;4.80;;;0.20;99.90;;;;;;5072263;28;20532;-72
2020/12/31 05:36:11;;;;;;;4.87;4.23;;;0.30;99.90;;;;;;5071613;28;20447;-72
2020/12/31 05:38:38;;;;;;;8.40;6.83;;;0.30;99.90;;;;;;5072653;28;20435;-71
2020/12/31 05:41:05;;;;;;;5.70;4.27;;;0.20;99.90;;;;;;5071491;28;20489;-73
2020/12/31 05:43:31;;;;;;;6.27;5.00;;;0.10;99.90;;;;;;5072734;28;20443;-72
2020/12/31 05:46:06;;;;;;;5.03;4.37;;;0.10;99.90;;;;;;5071580;28;20983;-72
2020/12/31 05:48:32;;;;;;;7.20;4.90;;;0.10;99.90;;;;;;5072197;28;21203;-72
2020/12/31 05:50:59;;;;;;;6.67;5.10;;;0.20;99.90;;;;;;5071034;28;20453;-72
2020/12/31 05:53:27;;;;;;;8.63;5.43;;;0.10;99.90;;;;;;5072142;28;20483;-73
2020/12/31 05:55:55;;;;;;;6.50;5.40;;;0.20;99.90;;;;;;5071074;28;20573;-72
2020/12/31 05:58:24;;;;;;;5.40;4.63;;;0.20;99.90;;;;;;5072919;28;20471;-72
2020/12/31 06:01:01;;;;;;;5.67;4.60;;;0.20;99.90;;;;;;5071391;28;20929;-71
2020/12/31 06:03:47;;;;;;;6.57;5.23;;;0.20;99.90;;;;;;5071634;28;20522;-72
2020/12/31 06:06:19;;;;;;;5.50;5.00;;;0.10;99.90;;;;;;5071375;28;20419;-72
2020/12/31 06:09:03;;;;;;;6.87;5.10;;;0.00;99.90;;;;;;5071765;28;20432;-72
2020/12/31 06:11:43;;;;;;;7.17;5.60;;;0.10;99.90;;;;;;5071162;28;20437;-73
2020/12/31 06:14:20;;;;;;;5.90;5.00;;;0.00;99.90;;;;;;5071733;28;20993;-73
2020/12/31 06:16:57;;;;;;;7.53;4.70;;;-0.10;99.90;;;;;;5071742;28;20513;-73
2020/12/31 06:19:33;;;;;;;6.60;5.50;;;-0.10;99.90;;;;;;5070780;28;20497;-72
2020/12/31 06:22:04;;;;;;;5.73;4.43;;;-0.20;99.90;;;;;;5071186;28;20437;-72
2020/12/31 06:24:40;;;;;;;5.57;4.67;;;-0.30;99.90;;;;;;5070770;28;20431;-71
2020/12/31 06:27:10;;;;;;;5.73;4.60;;;-0.40;99.90;;;;;;5071603;28;20443;-72
2020/12/31 06:29:45;;;;;;;5.60;4.70;;;-0.50;99.90;;;;;;5071007;28;20993;-72
2020/12/31 06:32:19;;;;;;;8.83;5.33;;;-0.40;99.90;;;;;;5070498;28;20447;-72
2020/12/31 06:34:47;;;;;;;7.63;5.60;;;-0.50;99.90;;;;;;5071449;28;20435;-72
2020/12/31 06:37:14;;;;;;;6.90;5.50;;;-0.50;99.90;;;;;;5070813;28;20452;-73
2020/12/31 06:39:41;;;;;;;6.93;5.90;;;-0.50;99.90;;;;;;5071274;28;20438;-72
2020/12/31 06:42:08;;;;;;;6.60;5.20;;;-0.40;99.90;;;;;;5070534;28;20814;-72
2020/12/31 06:44:35;;;;;;;5.73;5.07;;;-0.40;99.90;;;;;;5070890;28;20443;-72
2020/12/31 06:47:02;;;;;;;6.40;4.73;;;-0.40;99.90;;;;;;5071248;28;20517;-71
2020/12/31 06:49:52;;;;;;;7.10;5.60;;;-0.40;99.90;;;;;;5071243;28;20432;-72
2020/12/31 06:52:20;;;;;;;6.90;5.63;;;-0.30;99.90;;;;;;5071691;28;21108;-72
2020/12/31 06:54:46;;;;;;;6.63;5.27;;;-0.30;99.90;;;;;;5071223;28;20431;-71
2020/12/31 06:57:13;;;;;;;6.93;5.17;;;-0.20;99.90;;;;;;5079257;28;20459;-71
2020/12/31 06:59:46;;;;;;;5.77;5.10;;;-0.20;99.90;;;;;;5069606;28;20823;-71
2020/12/31 07:02:22;;;;;;;8.93;5.60;;;-0.20;99.90;;;;;;5069882;28;20772;-73
2020/12/31 07:04:49;;;;;;;5.97;5.37;;;-0.20;99.90;;;;;;5069579;28;20539;-71
2020/12/31 07:07:26;;;;;;;10.33;6.10;;;-0.20;99.90;;;;;;5069946;28;20983;-71
2020/12/31 07:09:55;;;;;;;5.70;5.10;;;-0.20;99.90;;;;;;5069387;28;20847;-73
2020/12/31 07:12:35;;;;;;;7.10;5.63;;;-0.30;99.90;;;;;;5070582;28;20530;-71
2020/12/31 07:15:03;;;;;;;8.40;5.40;;;-0.30;99.90;;;;;;5070849;28;20427;-72
2020/12/31 07:17:34;;;;;;;6.70;5.83;;;-0.20;99.90;;;;;;5069265;28;20459;-71
2020/12/31 07:20:03;;;;;;;7.63;5.13;;;-0.20;99.90;;;;;;5069727;28;20841;-72
2020/12/31 07:22:30;;;;;;;9.30;6.47;;;-0.20;99.90;;;;;;5069673;28;20435;-72
2020/12/31 07:25:00;;;;;;;6.47;4.83;;;-0.10;99.90;;;;;;5069606;28;20442;-72
2020/12/31 07:27:30;;;;;;;7.13;5.40;;;-0.20;99.90;;;;;;5068878;28;21054;-71
2020/12/31 07:30:18;;;;;;;6.40;5.23;;;-0.10;99.90;;;;;;5069225;28;20427;-72
2020/12/31 07:32:49;;;;;;;7.93;5.83;;;-0.20;99.90;;;;;;5061528;28;20487;-71
2020/12/31 07:35:24;;;;;;;6.57;5.30;;;-0.10;99.90;;;;;;5069076;28;20438;-72
2020/12/31 07:37:52;;;;;;;7.27;5.43;;;-0.10;99.90;;;;;;5070389;28;20454;-71
2020/12/31 07:40:42;;;;;;;8.17;6.50;;;0.10;99.90;;;;;;5070387;28;20461;-72
2020/12/31 07:43:11;;;;;;;6.83;5.80;;;0.30;99.90;;;;;;5068979;28;20443;-73
2020/12/31 07:45:39;;;;;;;8.37;7.07;;;0.40;99.90;;;;;;5068869;28;20488;-72
2020/12/31 07:48:05;;;;;;;7.90;6.20;;;0.50;99.90;;;;;;5068894;28;21025;-72
2020/12/31 07:50:32;;;;;;;6.93;6.20;;;0.60;99.90;;;;;;5068969;28;20440;-72
2020/12/31 07:53:00;;;;;;;7.10;6.33;;;0.60;99.90;;;;;;5069065;28;20479;-72
2020/12/31 07:55:26;;;;;;;8.73;6.93;;;0.70;99.90;;;;;;5068562;28;20469;-72
2020/12/31 07:57:53;;;;;;;7.40;6.60;;;0.90;99.90;;;;;;5068879;28;20229;-72
2020/12/31 08:00:21;;;;;;;8.20;6.27;;;1.10;99.90;;;;;;5069123;28;20461;-72
2020/12/31 08:02:49;;;;;;;11.07;6.40;;;1.20;99.90;;;;;;5068828;28;20439;-72
2020/12/31 08:05:18;;;;;;;9.10;6.50;;;1.40;99.90;;;;;;5069258;28;20439;-72
2020/12/31 08:07:49;;;;;;;7.73;6.30;;;1.60;99.90;;;;;;5068700;28;20484;-72
2020/12/31 08:10:16;;;;;;;10.80;7.60;;;1.60;99.90;;;;;;5068934;28;20439;-72
2020/12/31 08:12:53;;;;;;;8.47;6.40;;;1.70;99.90;;;;;;5068645;28;20532;-72
2020/12/31 08:15:21;;;;;;;6.20;5.50;;;1.70;99.90;;;;;;5068962;28;20506;-72
2020/12/31 08:17:52;;;;;;;7.70;6.93;;;1.80;99.90;;;;;;5068551;28;20966;-72
2020/12/31 08:20:19;;;;;;;9.67;6.50;;;1.90;99.90;;;;;;5068666;28;20929;-72
2020/12/31 08:22:51;;;;;;;7.53;5.90;;;2.00;99.90;;;;;;5068818;28;20831;-71
2020/12/31 08:25:23;;;;;;;7.20;5.83;;;2.10;99.90;;;;;;5068816;28;20808;-72
2020/12/31 08:27:50;;;;;;;6.90;5.90;;;2.20;99.90;;;;;;5068500;28;20493;-72
2020/12/31 08:30:19;;;;;;;7.03;5.50;;;2.30;99.90;;;;;;5068848;28;20918;-72
2020/12/31 08:32:54;;;;;;;7.57;6.13;;;2.30;99.90;;;;;;5068763;28;20471;-71
2020/12/31 08:35:23;;;;;;;9.20;6.33;;;2.40;99.90;;;;;;5068702;28;20434;-72
2020/12/31 08:38:02;;;;;;;6.93;5.73;;;2.40;99.90;;;;;;5068209;28;20451;-73
2020/12/31 08:40:31;;;;;;;9.70;6.93;;;2.40;99.90;;;;;;5068579;28;20438;-72
2020/12/31 08:42:58;;;;;;;7.30;6.20;;;2.50;99.90;;;;;;5068435;28;21093;-72
2020/12/31 08:45:26;;;;;;;8.20;6.13;;;2.50;99.90;;;;;;5068539;28;20789;-71
2020/12/31 08:47:52;;;;;;;6.40;5.80;;;2.60;99.90;;;;;;5068359;28;21086;-72
2020/12/31 08:50:19;;;;;;;7.37;6.00;;;2.60;99.90;;;;;;5068746;28;20423;-72
2020/12/31 08:52:45;;;;;;;8.17;5.90;;;2.70;99.90;;;;;;5068623;28;20482;-70
2020/12/31 08:55:12;;;;;;;6.40;5.70;;;2.80;99.90;;;;;;5068556;28;20423;-72
2020/12/31 08:57:40;;;;;;;6.50;5.80;;;2.90;99.90;;;;;;5068148;28;21001;-71
2020/12/31 09:00:07;;;;;;;8.70;6.13;;;3.00;99.90;;;;;;5068565;28;20831;-70
2020/12/31 09:02:34;;;;;;;10.90;6.23;;;3.20;99.90;;;;;;5068705;28;20438;-71
2020/12/31 09:05:17;;;;;;;6.87;5.50;;;3.30;99.90;;;;;;5068302;28;20427;-70
2020/12/31 09:07:44;;;;;;;10.73;7.37;;;3.30;99.90;;;;;;5068012;28;20447;-71
2020/12/31 09:10:19;;;;;;;7.90;6.23;;;3.40;99.90;;;;;;5068124;28;20809;-71
2020/12/31 09:12:47;;;;;;;9.50;6.40;;;3.50;99.90;;;;;;5067176;28;20919;-73
2020/12/31 09:15:21;;;;;;;7.47;6.10;;;3.60;99.90;;;;;;5068973;28;20435;-72
2020/12/31 09:17:48;;;;;;;7.70;6.73;;;3.50;99.90;;;;;;5071544;28;20462;-72
2020/12/31 09:20:20;;;;;;;7.30;6.53;;;3.50;99.90;;;;;;5071061;28;20468;-71
2020/12/31 09:22:47;;;;;;;7.10;5.50;;;3.60;99.90;;;;;;5071408;28;20953;-72
2020/12/31 09:25:14;;;;;;;8.23;6.53;;;3.60;99.90;;;;;;5067659;28;20455;-71
2020/12/31 09:27:41;;;;;;;8.87;6.13;;;3.70;99.90;;;;;;5069854;28;20968;-71
2020/12/31 09:30:11;;;;;;;7.00;5.77;;;3.80;99.90;;;;;;5071707;28;20958;-71
2020/12/31 09:32:38;;;;;;;8.70;7.00;;;3.80;99.90;;;;;;5069724;28;20506;-72
2020/12/31 09:35:06;;;;;;;7.70;6.47;;;3.80;99.90;;;;;;5070922;28;20528;-73
2020/12/31 09:37:48;;;;;;;8.73;7.37;;;4.00;99.90;;;;;;5071026;28;21137;-72
2020/12/31 09:40:15;;;;;;;7.50;6.73;;;4.10;99.90;;;;;;5071057;28;20439;-73
2020/12/31 09:42:42;;;;;;;11.03;6.00;;;4.20;99.90;;;;;;5071203;28;20439;-71
2020/12/31 09:45:09;;;;;;;9.33;7.87;;;4.30;99.90;;;;;;5070984;28;20446;-71
2020/12/31 09:47:36;;;;;;;8.73;6.80;;;4.30;99.90;;;;;;5070837;28;20462;-71
2020/12/31 09:50:03;;;;;;;8.80;7.90;;;4.50;99.90;;;;;;5070820;28;20443;-72
2020/12/31 09:52:32;;;;;;;8.80;7.50;;;4.60;99.90;;;;;;5071016;28;20459;-71
2020/12/31 09:54:59;;;;;;;9.67;6.67;;;4.60;99.90;;;;;;5071017;28;20431;-71
2020/12/31 09:57:26;;;;;;;7.53;6.70;;;4.60;99.90;;;;;;5070409;28;20455;-71
2020/12/31 09:59:53;;;;;;;8.60;7.70;;;4.70;99.90;;;;;;5071234;28;20439;-71
2020/12/31 10:02:21;;;;;;;9.20;7.60;;;4.80;99.90;;;;;;5071251;28;20435;-71
2020/12/31 10:04:47;;;;;;;8.97;8.07;;;4.80;99.90;;;;;;5073127;28;20967;-73
2020/12/31 10:07:14;;;;;;;10.40;7.57;;;4.90;99.90;;;;;;5069717;28;20459;-75
2020/12/31 10:09:40;;;;;;;8.30;7.43;;;4.90;99.90;;;;;;5068510;28;20463;-71
2020/12/31 10:12:07;;;;;;;9.13;8.00;;;4.90;99.90;;;;;;5070466;28;20443;-72
2020/12/31 10:14:34;;;;;;;8.03;7.23;;;4.90;99.90;;;;;;5063658;28;20486;-73
2020/12/31 10:17:01;;;;;;;8.60;6.90;;;4.90;99.90;;;;;;5064843;28;20463;-73
2020/12/31 10:19:28;;;;;;;7.40;6.17;;;4.90;99.90;;;;;;5067228;28;20463;-70
2020/12/31 10:21:55;;;;;;;9.17;7.90;;;4.90;99.90;;;;;;5069587;28;20963;-73
2020/12/31 10:24:21;;;;;;;10.40;7.97;;;5.00;99.90;;;;;;5070254;28;20962;-69
2020/12/31 10:26:48;;;;;;;8.10;6.53;;;5.00;99.90;;;;;;5069602;28;20462;-70
2020/12/31 10:29:15;;;;;;;7.97;6.63;;;4.90;99.90;;;;;;5068703;28;20454;-73
2020/12/31 10:31:42;;;;;;;8.80;7.40;;;5.10;99.90;;;;;;5069376;28;20814;-72
2020/12/31 10:34:10;;;;;;;10.50;8.43;;;5.10;99.90;;;;;;5069496;28;20475;-73
2020/12/31 10:36:37;;;;;;;8.90;7.80;;;5.40;99.90;;;;;;5069383;28;20558;-72
2020/12/31 10:39:04;;;;;;;8.70;7.47;;;5.60;99.90;;;;;;5070142;28;20489;-72
2020/12/31 10:41:31;;;;;;;8.57;7.67;;;5.80;99.90;;;;;;5069989;28;20431;-73
2020/12/31 10:43:58;;;;;;;9.97;8.53;;;5.90;99.90;;;;;;5071233;28;20473;-71
2020/12/31 10:46:27;;;;;;;9.43;8.33;;;5.90;99.90;;;;;;5070275;28;20447;-71
2020/12/31 10:48:54;;;;;;;9.43;8.03;;;6.10;99.90;;;;;;5070023;28;20833;-71
2020/12/31 10:51:20;;;;;;;9.90;8.13;;;6.20;99.90;;;;;;5069836;28;20919;-71
2020/12/31 10:53:48;;;;;;;10.10;7.67;;;6.30;99.90;;;;;;5069280;28;20509;-71
2020/12/31 10:56:20;;;;;;;10.83;8.50;;;6.20;99.90;;;;;;5069437;28;20853;-71
2020/12/31 10:58:46;;;;;;;7.53;6.10;;;6.40;99.90;;;;;;5069041;28;20457;-72
2020/12/31 11:01:15;;;;;;;6.40;5.73;;;6.30;99.90;;;;;;5069976;28;20427;-71
2020/12/31 11:03:42;;;;;;;11.40;6.80;;;6.10;99.90;;;;;;5069476;28;20437;-71
2020/12/31 11:06:10;;;;;;;8.37;6.77;;;5.80;99.90;;;;;;5069363;28;20484;-72
2020/12/31 11:08:36;;;;;;;7.97;6.07;;;5.50;99.90;;;;;;5069272;28;20443;-71
2020/12/31 11:11:04;;;;;;;8.27;6.90;;;5.30;99.90;;;;;;5069248;28;20457;-71
2020/12/31 11:13:30;;;;;;;8.90;7.70;;;5.30;99.90;;;;;;5069225;28;20478;-71
2020/12/31 11:15:57;;;;;;;8.10;7.13;;;5.20;99.90;;;;;;5067841;28;20504;-71
2020/12/31 11:18:23;;;;;;;8.17;6.83;;;5.20;99.90;;;;;;5069627;28;20460;-72
2020/12/31 11:20:53;;;;;;;9.50;7.53;;;5.00;99.90;;;;;;5069474;28;20496;-72
2020/12/31 11:23:20;;;;;;;11.53;6.90;;;4.80;99.90;;;;;;5067336;28;20449;-72
2020/12/31 11:25:46;;;;;;;8.33;7.40;;;4.80;99.90;;;;;;5068480;28;20442;-72
2020/12/31 11:28:13;;;;;;;8.90;7.53;;;4.70;99.90;;;;;;5069223;28;20863;-72
2020/12/31 11:30:40;;;;;;;8.27;6.83;;;4.60;99.90;;;;;;5068167;28;20942;-71
2020/12/31 11:33:06;;;;;;;9.83;7.00;;;4.70;99.90;;;;;;5061575;28;20644;-71
2020/12/31 11:35:33;;;;;;;7.93;7.13;;;4.70;99.90;;;;;;5066501;28;20443;-72
2020/12/31 11:38:00;;;;;;;8.20;7.17;;;4.80;99.90;;;;;;5066588;28;20509;-71
2020/12/31 11:40:26;;;;;;;10.57;7.03;;;4.90;99.90;;;;;;5069161;28;20481;-71
2020/12/31 11:42:53;;;;;;;8.77;6.40;;;5.10;99.90;;;;;;5069268;28;20428;-72
2020/12/31 11:45:21;;;;;;;8.70;6.63;;;5.00;99.90;;;;;;5068513;28;20494;-72
2020/12/31 11:47:47;;;;;;;8.20;6.70;;;4.90;99.90;;;;;;5068179;28;20473;-71
2020/12/31 11:50:14;;;;;;;9.20;6.23;;;5.00;99.90;;;;;;5068849;28;20493;-71
2020/12/31 11:52:40;;;;;;;8.07;7.27;;;5.00;99.90;;;;;;5069080;28;20435;-70
2020/12/31 11:55:08;;;;;;;8.67;6.97;;;5.00;99.90;;;;;;5068803;28;20466;-71
2020/12/31 11:57:34;;;;;;;7.60;6.53;;;5.10;99.90;;;;;;5068522;28;20467;-70
2020/12/31 12:00:01;;;;;;;7.03;6.10;;;5.10;99.90;;;;;;5068561;28;20427;-71
2020/12/31 12:02:28;;;;;;;9.57;7.50;;;5.10;99.90;;;;;;5068743;28;20911;-71
2020/12/31 12:04:55;;;;;;;8.67;6.97;;;5.00;99.90;;;;;;5068142;28;20447;-71
2020/12/31 12:07:21;;;;;;;9.43;6.67;;;5.00;99.90;;;;;;5068231;28;20480;-71
2020/12/31 12:09:48;;;;;;;8.87;6.97;;;5.00;99.90;;;;;;5064940;28;20443;-71
2020/12/31 12:12:15;;;;;;;8.40;6.37;;;5.10;99.90;;;;;;5063670;28;20812;-72
2020/12/31 12:14:41;;;;;;;8.83;6.67;;;5.20;99.90;;;;;;5067673;28;20486;-72
2020/12/31 12:17:08;;;;;;;8.57;7.17;;;5.30;99.90;;;;;;5076626;28;20466;-73
2020/12/31 12:19:35;;;;;;;8.37;6.40;;;5.50;99.90;;;;;;5087496;28;20435;-72
2020/12/31 12:22:02;;;;;;;8.77;7.13;;;5.70;99.90;;;;;;5083480;28;20449;-72
2020/12/31 12:24:29;;;;;;;7.90;7.10;;;5.90;99.90;;;;;;5081946;28;20496;-73
2020/12/31 12:26:56;;;;;;;9.00;6.67;;;6.00;99.90;;;;;;5070610;28;20481;-73
2020/12/31 12:29:23;;;;;;;9.13;6.30;;;6.00;99.90;;;;;;5075042;28;20503;-72
2020/12/31 12:31:50;;;;;;;7.23;5.50;;;5.90;99.90;;;;;;5075559;28;20471;-73
2020/12/31 12:34:25;;;;;;;7.50;6.10;;;5.80;99.90;;;;;;5081897;28;20505;-73
2020/12/31 12:36:54;;;;;;;7.37;6.00;;;5.80;99.90;;;;;;5083644;28;20471;-72
2020/12/31 12:39:21;;;;;;;6.63;5.63;;;5.70;99.90;;;;;;5076684;28;20668;-72
2020/12/31 12:41:49;;;;;;;6.60;5.70;;;5.70;99.90;;;;;;5077890;28;20463;-73
2020/12/31 12:44:15;;;;;;;7.43;5.90;;;5.60;99.90;;;;;;5083943;28;20537;-72
2020/12/31 12:46:43;;;;;;;6.13;5.53;;;5.70;99.90;;;;;;5085413;28;20484;-72
2020/12/31 12:49:09;;;;;;;6.40;5.50;;;5.80;99.90;;;;;;5093250;28;20434;-72
2020/12/31 12:51:36;;;;;;;7.10;5.97;;;5.70;99.90;;;;;;5089625;28;20960;-71
2020/12/31 12:54:03;;;;;;;6.70;6.00;;;5.70;99.90;;;;;;5066150;28;20903;-72
2020/12/31 12:56:30;;;;;;;7.40;5.63;;;5.70;99.90;;;;;;5066640;28;20470;-72
2020/12/31 12:58:57;;;;;;;7.53;5.87;;;5.70;99.90;;;;;;5070318;28;20443;-73
2020/12/31 13:01:23;;;;;;;9.53;5.70;;;5.80;99.90;;;;;;5069464;28;20446;-73